createdAt,value
2023-05-19T00:00:48.543Z,6.60
2023-05-19T00:03:54.584Z,6.05
2023-05-19T00:06:59.840Z,5.90
2023-05-19T00:10:02.606Z,5.30
2023-05-19T00:13:05.285Z,5.53
2023-05-19T00:16:08.314Z,6.13
2023-05-19T00:19:12.778Z,4.90
2023-05-19T00:22:15.620Z,5.13
2023-05-19T00:25:18.321Z,4.80
2023-05-19T00:28:20.639Z,5.15
2023-05-19T00:31:23.359Z,5.80
2023-05-19T00:34:26.036Z,5.32
2023-05-19T00:37:28.644Z,5.53
2023-05-19T00:40:32.354Z,5.63
2023-05-19T00:43:35.420Z,5.88
2023-05-19T00:46:38.346Z,5.55
2023-05-19T00:49:41.360Z,5.55
2023-05-19T00:52:44.068Z,5.97
2023-05-19T00:55:48.301Z,6.80
2023-05-19T00:58:55.214Z,5.93
2023-05-19T01:01:58.663Z,5.75
2023-05-19T01:05:02.400Z,6.50
2023-05-19T01:08:06.196Z,7.15
2023-05-19T01:11:08.721Z,9.55
2023-05-19T01:14:11.457Z,7.70
2023-05-19T01:17:29.774Z,6.43
2023-05-19T01:20:39.371Z,5.75
2023-05-19T01:23:57.227Z,5.53
2023-05-19T01:27:19.247Z,6.53
2023-05-19T01:30:32.671Z,5.38
2023-05-19T01:33:36.469Z,5.40
2023-05-19T01:36:41.405Z,5.43
2023-05-19T01:39:45.292Z,5.90
2023-05-19T01:42:49.594Z,5.63
2023-05-19T01:45:52.891Z,6.05
2023-05-19T01:48:57.501Z,6.72
2023-05-19T01:52:00.332Z,6.07
2023-05-19T01:55:02.956Z,6.28
2023-05-19T01:58:20.805Z,6.15
2023-05-19T02:01:36.044Z,6.00
2023-05-19T02:04:45.255Z,7.18
2023-05-19T02:07:58.274Z,6.72
2023-05-19T02:11:09.362Z,6.72
2023-05-19T02:14:21.534Z,7.40
2023-05-19T02:17:27.679Z,7.13
2023-05-19T02:20:31.588Z,7.25
2023-05-19T02:23:34.470Z,6.75
2023-05-19T02:26:36.814Z,6.10
2023-05-19T02:29:39.912Z,7.13
2023-05-19T02:32:42.619Z,6.65
2023-05-19T02:35:45.220Z,7.07
2023-05-19T02:38:47.600Z,6.97
2023-05-19T02:41:51.041Z,7.13
2023-05-19T02:44:55.103Z,7.47
2023-05-19T02:47:57.701Z,7.70
2023-05-19T02:51:01.313Z,7.07
2023-05-19T02:54:04.289Z,7.68
2023-05-19T02:57:07.305Z,7.45
2023-05-19T03:00:10.399Z,6.68
2023-05-19T03:03:14.057Z,8.57
2023-05-19T03:06:18.443Z,7.53
2023-05-19T03:09:21.116Z,8.00
2023-05-19T03:12:23.695Z,7.15
2023-05-19T03:15:26.062Z,7.53
2023-05-19T03:18:28.520Z,7.35
2023-05-19T03:21:32.255Z,7.68
2023-05-19T03:24:34.871Z,7.32
2023-05-19T03:27:38.447Z,10.02
2023-05-19T03:30:41.762Z,8.38
2023-05-19T03:33:49.130Z,7.90
2023-05-19T03:36:51.443Z,7.15
2023-05-19T03:39:54.083Z,7.20
2023-05-19T03:42:56.899Z,8.50
2023-05-19T03:45:59.724Z,7.22
2023-05-19T03:49:20.815Z,8.32
2023-05-19T03:52:45.746Z,6.50
2023-05-19T03:56:00.785Z,7.65
2023-05-19T03:59:06.453Z,8.00
2023-05-19T04:02:08.892Z,8.27
2023-05-19T04:05:11.662Z,8.98
2023-05-19T04:08:13.978Z,7.47
2023-05-19T04:11:16.856Z,8.45
2023-05-19T04:14:20.275Z,8.75
2023-05-19T04:17:26.358Z,7.80
2023-05-19T04:20:30.228Z,8.25
2023-05-19T04:23:33.576Z,9.35
2023-05-19T04:26:40.365Z,8.18
2023-05-19T04:29:42.912Z,10.48
2023-05-19T04:32:46.016Z,9.52
2023-05-19T04:35:50.941Z,8.20
2023-05-19T04:39:02.704Z,8.43
2023-05-19T04:42:06.799Z,8.35
2023-05-19T04:45:10.553Z,7.53
2023-05-19T04:48:17.093Z,7.60
2023-05-19T04:51:21.285Z,8.52
2023-05-19T04:54:24.353Z,7.32
2023-05-19T04:57:27.444Z,7.07
2023-05-19T05:00:29.916Z,7.35
2023-05-19T05:03:38.930Z,7.20
2023-05-19T05:06:42.483Z,7.47
2023-05-19T05:09:46.022Z,5.82
2023-05-19T05:12:48.922Z,5.18
2023-05-19T05:15:52.778Z,6.43
2023-05-19T05:18:56.157Z,6.18
2023-05-19T05:22:00.959Z,6.40
2023-05-19T05:25:04.162Z,5.88
2023-05-19T05:28:06.792Z,6.85
2023-05-19T05:31:12.280Z,5.28
2023-05-19T05:34:15.528Z,5.65
2023-05-19T05:37:18.826Z,5.63
2023-05-19T05:40:21.892Z,5.18
2023-05-19T05:43:24.834Z,5.13
2023-05-19T05:46:33.133Z,4.22
2023-05-19T05:49:38.455Z,6.40
2023-05-19T05:52:42.285Z,6.20
2023-05-19T05:55:46.948Z,5.45
2023-05-19T05:58:50.875Z,4.53
2023-05-19T06:01:53.783Z,4.85
2023-05-19T06:04:56.919Z,4.55
2023-05-19T06:07:59.985Z,4.97
2023-05-19T06:11:09.364Z,3.85
2023-05-19T06:14:14.826Z,5.47
2023-05-19T06:17:47.990Z,4.95
2023-05-19T06:20:50.570Z,4.50
2023-05-19T06:23:53.572Z,5.00
2023-05-19T06:26:56.235Z,5.53
2023-05-19T06:30:01.199Z,5.80
2023-05-19T06:33:07.110Z,4.75
2023-05-19T06:36:10.237Z,4.95
2023-05-19T06:39:14.575Z,4.45
2023-05-19T06:42:16.903Z,4.68
2023-05-19T06:45:33.010Z,4.68
2023-05-19T06:48:37.814Z,4.03
2023-05-19T06:51:40.360Z,3.60
2023-05-19T06:54:42.937Z,3.85
2023-05-19T06:57:46.438Z,3.65
2023-05-19T07:00:49.734Z,3.38
2023-05-19T07:03:53.238Z,4.55
2023-05-19T07:06:56.648Z,4.25
2023-05-19T07:09:59.973Z,4.22
2023-05-19T07:13:04.487Z,4.40
2023-05-19T07:16:08.754Z,4.13
2023-05-19T07:19:11.322Z,4.65
2023-05-19T07:22:13.710Z,3.92
2023-05-19T07:25:16.187Z,3.95
2023-05-19T07:28:21.582Z,3.97
2023-05-19T07:31:24.151Z,3.47
2023-05-19T07:34:26.612Z,3.97
2023-05-19T07:37:28.994Z,3.60
2023-05-19T07:40:31.893Z,3.72
2023-05-19T07:43:34.406Z,4.03
2023-05-19T07:46:38.001Z,3.30
2023-05-19T07:49:40.548Z,3.08
2023-05-19T07:52:44.214Z,3.60
2023-05-19T07:55:47.078Z,4.00
2023-05-19T07:58:49.470Z,3.50
2023-05-19T08:01:52.179Z,3.38
2023-05-19T08:04:54.577Z,3.53
2023-05-19T08:07:57.466Z,3.35
2023-05-19T08:11:04.346Z,3.17
2023-05-19T08:14:06.661Z,3.63
2023-05-19T08:17:09.025Z,3.40
2023-05-19T08:20:14.439Z,3.05
2023-05-19T08:23:18.353Z,2.92
2023-05-19T08:26:21.663Z,3.13
2023-05-19T08:29:24.262Z,3.10
2023-05-19T08:32:26.780Z,3.28
2023-05-19T08:35:29.064Z,3.65
2023-05-19T08:38:31.528Z,3.28
2023-05-19T08:41:33.851Z,3.55
2023-05-19T08:44:37.932Z,3.00
2023-05-19T08:47:49.812Z,3.58
2023-05-19T08:51:03.576Z,3.40
2023-05-19T08:54:17.919Z,2.83
2023-05-19T08:57:23.094Z,3.05
2023-05-19T09:00:25.996Z,3.42
2023-05-19T09:03:30.352Z,3.03
2023-05-19T09:06:33.066Z,3.63
2023-05-19T09:09:36.775Z,3.45
2023-05-19T09:12:39.094Z,2.33
2023-05-19T09:15:42.975Z,2.40
2023-05-19T09:18:58.593Z,3.00
2023-05-19T09:22:05.159Z,2.50
2023-05-19T09:25:19.183Z,2.92
2023-05-19T09:28:33.345Z,2.45
2023-05-19T09:31:35.774Z,2.97
2023-05-19T09:34:41.795Z,3.10
2023-05-19T09:37:44.349Z,2.95
2023-05-19T09:40:49.826Z,2.97
2023-05-19T09:43:58.571Z,2.80
2023-05-19T09:47:01.220Z,2.60
2023-05-19T09:50:05.534Z,2.60
2023-05-19T09:53:08.163Z,2.38
2023-05-19T09:56:11.095Z,2.53
2023-05-19T09:59:16.518Z,2.92
2023-05-19T10:02:25.115Z,2.60
2023-05-19T10:05:30.469Z,2.83
2023-05-19T10:08:34.777Z,2.75
2023-05-19T10:11:41.314Z,2.45
2023-05-19T10:14:44.872Z,2.35
2023-05-19T10:17:47.209Z,2.45
2023-05-19T10:20:50.298Z,2.97
2023-05-19T10:23:52.778Z,2.47
2023-05-19T10:27:03.684Z,2.40
2023-05-19T10:30:15.637Z,2.53
2023-05-19T10:33:21.094Z,2.60
2023-05-19T10:36:38.014Z,2.60
2023-05-19T10:39:42.602Z,2.70
2023-05-19T10:43:20.861Z,2.97
2023-05-19T10:46:30.365Z,2.42
2023-05-19T10:49:36.632Z,2.47
2023-05-19T10:52:40.202Z,2.50
2023-05-19T10:56:07.696Z,2.70
2023-05-19T10:59:31.176Z,2.20
2023-05-19T11:02:37.373Z,2.25
2023-05-19T11:05:39.897Z,2.67
2023-05-19T11:08:42.317Z,2.17
2023-05-19T11:11:49.070Z,2.58
2023-05-19T11:14:55.331Z,2.72
2023-05-19T11:17:57.924Z,2.67
2023-05-19T11:21:02.666Z,2.55
2023-05-19T11:24:08.921Z,2.45
2023-05-19T11:27:31.719Z,2.35
2023-05-19T11:30:34.874Z,2.78
2023-05-19T11:33:37.980Z,2.40
2023-05-19T11:36:41.384Z,2.17
2023-05-19T11:39:45.817Z,2.33
2023-05-19T11:42:48.140Z,2.35
2023-05-19T11:45:51.111Z,2.58
2023-05-19T11:48:54.109Z,2.63
2023-05-19T11:51:57.485Z,2.60
2023-05-19T11:55:04.346Z,2.47
2023-05-19T11:58:09.996Z,2.92
2023-05-19T12:01:12.553Z,2.83
2023-05-19T12:04:14.882Z,2.35
2023-05-19T12:07:19.061Z,2.63
2023-05-19T12:10:26.613Z,2.53
2023-05-19T12:13:29.351Z,2.95
2023-05-19T12:16:35.764Z,3.90
2023-05-19T12:19:38.612Z,2.20
2023-05-19T12:22:41.042Z,2.58
2023-05-19T12:25:43.463Z,2.53
2023-05-19T12:28:46.134Z,2.10
2023-05-19T12:31:49.430Z,3.08
2023-05-19T12:34:53.066Z,2.72
2023-05-19T12:37:55.537Z,2.42
2023-05-19T12:41:00.904Z,2.60
2023-05-19T12:44:14.967Z,2.70
2023-05-19T12:47:19.127Z,2.55
2023-05-19T12:50:21.551Z,2.45
2023-05-19T12:53:27.232Z,2.75
2023-05-19T12:56:29.527Z,2.92
2023-05-19T12:59:54.882Z,2.90
2023-05-19T13:03:01.450Z,2.53
2023-05-19T13:06:04.078Z,2.80
2023-05-19T13:09:07.302Z,2.45
2023-05-19T13:12:09.716Z,2.70
2023-05-19T13:15:12.080Z,2.75
2023-05-19T13:18:21.996Z,2.83
2023-05-19T13:21:25.267Z,2.80
2023-05-19T13:24:27.801Z,2.78
2023-05-19T13:27:30.068Z,2.42
2023-05-19T13:30:38.016Z,2.40
2023-05-19T13:33:40.736Z,2.90
2023-05-19T13:36:48.138Z,2.25
2023-05-19T13:42:53.863Z,2.22
2023-05-19T13:45:56.338Z,2.05
2023-05-19T13:48:58.716Z,2.25
2023-05-19T13:52:01.025Z,2.67
2023-05-19T13:55:03.713Z,2.55
2023-05-19T13:58:06.195Z,3.97
2023-05-19T14:01:09.440Z,2.58
2023-05-19T14:04:13.342Z,2.60
2023-05-19T14:07:16.758Z,2.42
2023-05-19T14:10:19.151Z,2.63
2023-05-19T14:13:31.989Z,2.72
2023-05-19T14:16:38.344Z,2.35
2023-05-19T14:19:40.908Z,3.70
2023-05-19T14:22:43.206Z,2.60
2023-05-19T14:25:45.790Z,2.85
2023-05-19T14:28:48.043Z,2.75
2023-05-19T14:31:50.597Z,2.42
2023-05-19T14:34:53.089Z,2.38
2023-05-19T14:37:55.454Z,2.50
2023-05-19T14:40:57.790Z,2.70
2023-05-19T14:44:00.187Z,2.40
2023-05-19T14:47:02.573Z,2.50
2023-05-19T14:50:05.723Z,2.30
2023-05-19T14:53:08.005Z,2.40
2023-05-19T14:56:10.270Z,2.83
2023-05-19T14:59:12.574Z,2.75
2023-05-19T15:02:14.810Z,2.65
2023-05-19T15:05:17.395Z,2.83
2023-05-19T15:08:19.815Z,2.83
2023-05-19T15:11:22.480Z,2.63
2023-05-19T15:14:24.791Z,2.50
2023-05-19T15:17:27.065Z,2.88
2023-05-19T15:20:29.685Z,2.78
2023-05-19T15:23:32.180Z,2.90
2023-05-19T15:26:34.474Z,3.20
2023-05-19T15:29:36.855Z,2.75
2023-05-19T15:32:39.165Z,2.72
2023-05-19T15:35:41.877Z,2.75
2023-05-19T15:38:44.268Z,2.55
2023-05-19T15:41:46.562Z,2.72
2023-05-19T15:44:48.966Z,2.78
2023-05-19T15:47:51.372Z,3.00
2023-05-19T15:50:53.660Z,2.85
2023-05-19T15:53:56.056Z,3.03
2023-05-19T15:56:58.407Z,3.20
2023-05-19T16:00:01.104Z,2.83
2023-05-19T16:03:03.435Z,3.05
2023-05-19T16:06:05.948Z,2.90
2023-05-19T16:09:08.221Z,3.00
2023-05-19T16:12:10.621Z,2.78
2023-05-19T16:15:12.963Z,2.50
2023-05-19T16:18:16.082Z,3.05
2023-05-19T16:21:18.512Z,3.30
2023-05-19T16:24:21.031Z,3.33
2023-05-19T16:27:23.346Z,2.78
2023-05-19T16:30:27.942Z,3.22
2023-05-19T16:33:30.454Z,3.33
2023-05-19T16:36:32.804Z,4.18
2023-05-19T16:39:38.120Z,3.63
2023-05-19T16:42:40.962Z,3.78
2023-05-19T16:45:43.280Z,4.75
2023-05-19T16:48:45.756Z,3.70
2023-05-19T16:51:48.943Z,2.95
2023-05-19T16:54:51.435Z,2.90
2023-05-19T16:57:53.960Z,3.65
2023-05-19T17:00:57.628Z,3.35
2023-05-19T17:04:00.004Z,3.95
2023-05-19T17:07:02.405Z,3.80
2023-05-19T17:10:05.207Z,3.35
2023-05-19T17:13:07.493Z,3.67
2023-05-19T17:16:09.745Z,4.43
2023-05-19T17:19:12.523Z,3.85
2023-05-19T17:22:14.863Z,3.92
2023-05-19T17:25:17.249Z,3.63
2023-05-19T17:28:19.551Z,3.80
2023-05-19T17:31:21.857Z,4.15
2023-05-19T17:34:24.243Z,4.15
2023-05-19T17:37:26.574Z,4.10
2023-05-19T17:40:28.931Z,4.07
2023-05-19T17:43:31.204Z,3.97
2023-05-19T17:46:35.797Z,3.95
2023-05-19T17:49:40.175Z,3.50
2023-05-19T17:52:42.945Z,3.63
2023-05-19T17:55:53.417Z,3.92
2023-05-19T17:58:56.057Z,3.85
2023-05-19T18:01:58.682Z,5.13
2023-05-19T18:05:01.841Z,4.35
2023-05-19T18:08:07.187Z,4.65
2023-05-19T18:11:13.421Z,3.92
2023-05-19T18:14:15.873Z,4.55
2023-05-19T18:17:18.207Z,4.28
2023-05-19T18:20:20.577Z,4.82
2023-05-19T18:23:22.855Z,5.50
2023-05-19T18:26:25.139Z,4.72
2023-05-19T18:29:30.286Z,4.85
2023-05-19T18:32:33.944Z,4.65
2023-05-19T18:35:37.179Z,5.40
2023-05-19T18:38:40.432Z,5.00
2023-05-19T18:41:42.818Z,5.53
2023-05-19T18:44:47.151Z,4.70
2023-05-19T18:47:49.431Z,5.05
2023-05-19T18:50:51.951Z,5.85
2023-05-19T18:53:54.283Z,5.53
2023-05-19T18:56:56.612Z,5.75
2023-05-19T18:59:58.880Z,5.90
2023-05-19T19:03:01.799Z,5.47
2023-05-19T19:06:04.238Z,5.88
2023-05-19T19:09:06.568Z,7.32
2023-05-19T19:12:09.040Z,9.13
2023-05-19T19:15:11.634Z,7.15
2023-05-19T19:18:14.067Z,6.63
2023-05-19T19:21:16.421Z,9.15
2023-05-19T19:24:18.665Z,6.25
2023-05-19T19:27:21.363Z,6.70
2023-05-19T19:30:26.865Z,7.30
2023-05-19T19:33:34.364Z,6.60
2023-05-19T19:36:36.841Z,6.47
2023-05-19T19:39:39.480Z,6.40
2023-05-19T19:42:41.842Z,6.47
2023-05-19T19:45:44.195Z,7.30
2023-05-19T19:48:46.472Z,7.57
2023-05-19T19:51:48.769Z,7.88
2023-05-19T19:54:51.492Z,7.30
2023-05-19T19:57:53.820Z,7.85
2023-05-19T20:01:00.614Z,8.35
2023-05-19T20:04:03.199Z,8.13
2023-05-19T20:07:05.846Z,7.82
2023-05-19T20:10:08.667Z,8.02
2023-05-19T20:13:11.115Z,8.95
2023-05-19T20:16:13.433Z,8.57
2023-05-19T20:19:15.871Z,8.57
2023-05-19T20:22:18.280Z,8.43
2023-05-19T20:25:20.911Z,8.40
2023-05-19T20:28:24.201Z,10.00
2023-05-19T20:31:26.697Z,11.07
2023-05-19T20:34:29.055Z,10.00
2023-05-19T20:37:31.462Z,10.32
2023-05-19T20:40:37.882Z,8.93
2023-05-19T20:43:40.196Z,8.13
2023-05-19T20:46:47.420Z,9.55
2023-05-19T20:49:49.765Z,11.10
2023-05-19T20:52:52.077Z,9.25
2023-05-19T20:55:54.409Z,9.95
2023-05-19T20:58:56.773Z,9.80
2023-05-19T21:01:59.139Z,9.65
2023-05-19T21:05:01.610Z,9.07
2023-05-19T21:08:04.122Z,7.85
2023-05-19T21:11:06.512Z,9.43
2023-05-19T21:14:09.195Z,11.80
2023-05-19T21:17:11.661Z,13.18
2023-05-19T21:20:14.218Z,12.85
2023-05-19T21:23:16.581Z,10.27
2023-05-19T21:26:18.974Z,8.63
2023-05-19T21:29:21.251Z,7.25
2023-05-19T21:32:23.617Z,9.73
2023-05-19T21:35:26.071Z,11.18
2023-05-19T21:38:28.445Z,8.85
2023-05-19T21:41:31.269Z,10.23
2023-05-19T21:44:33.704Z,9.88
2023-05-19T21:47:36.195Z,10.38
2023-05-19T21:50:38.875Z,6.90
2023-05-19T21:53:41.242Z,6.97
2023-05-19T21:56:43.608Z,6.60
2023-05-19T21:59:46.324Z,6.15
2023-05-19T22:02:48.749Z,6.45
2023-05-19T22:05:53.382Z,6.55
2023-05-19T22:08:55.787Z,6.10
2023-05-19T22:11:58.112Z,6.75
2023-05-19T22:15:00.882Z,6.45
2023-05-19T22:18:03.227Z,5.75
2023-05-19T22:21:05.769Z,6.00
2023-05-19T22:24:08.053Z,7.40
2023-05-19T22:27:10.387Z,6.57
2023-05-19T22:30:12.735Z,6.43
2023-05-19T22:33:15.147Z,7.13
2023-05-19T22:36:17.635Z,7.72
2023-05-19T22:39:19.890Z,7.03
2023-05-19T22:42:22.159Z,6.10
2023-05-19T22:45:24.458Z,7.00
2023-05-19T22:48:26.777Z,7.50
2023-05-19T22:51:29.097Z,7.95
2023-05-19T22:54:32.840Z,7.22
2023-05-19T22:57:35.618Z,7.10
2023-05-19T23:00:38.004Z,6.60
2023-05-19T23:03:40.459Z,7.07
2023-05-19T23:06:42.800Z,7.43
2023-05-19T23:09:45.114Z,6.65
2023-05-19T23:12:47.432Z,6.90
2023-05-19T23:15:49.715Z,7.00
2023-05-19T23:18:52.049Z,7.43
2023-05-19T23:21:54.391Z,7.80
2023-05-19T23:24:56.784Z,7.45
2023-05-19T23:27:59.112Z,6.72
2023-05-19T23:31:01.593Z,6.60
2023-05-19T23:34:03.947Z,7.43
2023-05-19T23:37:06.361Z,7.35
2023-05-19T23:40:10.692Z,6.70
2023-05-19T23:43:13.232Z,6.65
2023-05-19T23:46:15.669Z,6.70
2023-05-19T23:49:18.068Z,6.82
2023-05-19T23:52:20.525Z,6.32
2023-05-19T23:55:23.616Z,6.53
2023-05-19T23:58:26.041Z,6.50
